createdAt,value
2023-12-21T00:02:29.178Z,6.88
2023-12-21T00:07:30.794Z,7.82
2023-12-21T00:12:32.813Z,10.80
2023-12-21T00:17:34.364Z,4.72
2023-12-21T00:22:35.876Z,9.98
2023-12-21T00:27:37.303Z,5.53
2023-12-21T00:32:38.822Z,12.18
2023-12-21T00:37:40.432Z,12.15
2023-12-21T00:42:43.635Z,8.05
2023-12-21T00:47:45.413Z,6.13
2023-12-21T00:52:47.028Z,5.60
2023-12-21T00:57:48.768Z,6.20
2023-12-21T01:02:50.517Z,10.20
2023-12-21T01:07:52.013Z,8.05
2023-12-21T01:12:53.472Z,5.60
2023-12-21T01:17:55.001Z,9.95
2023-12-21T01:22:56.456Z,10.30
2023-12-21T01:27:57.897Z,7.95
2023-12-21T01:32:59.879Z,9.40
2023-12-21T01:38:01.352Z,5.57
2023-12-21T01:43:02.852Z,8.80
2023-12-21T01:48:04.786Z,8.82
2023-12-21T01:53:06.493Z,4.53
2023-12-21T01:58:09.949Z,5.60
2023-12-21T02:03:11.492Z,5.15
2023-12-21T02:08:13.623Z,5.25
2023-12-21T02:13:16.714Z,5.05
2023-12-21T02:18:18.719Z,9.00
2023-12-21T02:23:22.179Z,5.38
2023-12-21T02:28:23.783Z,8.30
2023-12-21T02:33:25.314Z,5.50
2023-12-21T02:38:26.814Z,10.25
2023-12-21T02:43:28.320Z,8.32
2023-12-21T02:48:30.893Z,5.65
2023-12-21T02:53:32.433Z,27.92
2023-12-21T02:58:34.111Z,8.50
2023-12-21T03:03:36.017Z,9.15
2023-12-21T03:08:37.618Z,3.50
2023-12-21T03:13:39.096Z,10.82
2023-12-21T03:18:40.654Z,3.63
2023-12-21T03:23:42.740Z,3.38
2023-12-21T03:28:46.269Z,7.40
2023-12-21T03:33:47.946Z,7.22
2023-12-21T03:38:50.090Z,6.22
2023-12-21T03:43:51.579Z,7.32
2023-12-21T03:48:53.162Z,5.93
2023-12-21T03:53:54.647Z,40.45
2023-12-21T03:58:56.110Z,28.95
2023-12-21T04:03:57.653Z,5.55
2023-12-21T04:08:59.144Z,3.65
2023-12-21T04:14:00.673Z,8.98
2023-12-21T04:19:05.324Z,38.75
2023-12-21T04:24:07.308Z,8.20
2023-12-21T04:29:08.938Z,7.00
2023-12-21T04:34:10.497Z,2.63
2023-12-21T04:39:12.265Z,6.63
2023-12-21T04:44:13.754Z,9.55
2023-12-21T04:49:20.381Z,4.45
2023-12-21T04:54:21.972Z,14.68
2023-12-21T04:59:23.567Z,37.78
2023-12-21T05:04:25.307Z,34.90
2023-12-21T05:09:26.857Z,36.72
2023-12-21T05:14:28.336Z,28.30
2023-12-21T05:19:30.047Z,5.53
2023-12-21T05:24:31.586Z,5.88
2023-12-21T05:29:33.201Z,66.53
2023-12-21T05:34:34.828Z,8.93
2023-12-21T05:39:36.612Z,24.23
2023-12-21T05:44:38.139Z,10.32
2023-12-21T05:49:39.758Z,25.83
2023-12-21T05:54:41.558Z,8.05
2023-12-21T05:59:43.186Z,6.10
2023-12-21T06:04:44.686Z,19.88
2023-12-21T06:09:46.212Z,7.78
2023-12-21T06:14:47.671Z,32.90
2023-12-21T06:19:49.287Z,50.47
2023-12-21T06:24:51.147Z,12.25
2023-12-21T06:29:52.750Z,32.85
2023-12-21T06:34:54.309Z,55.78
2023-12-21T06:39:55.973Z,24.92
2023-12-21T06:44:57.463Z,14.95
2023-12-21T06:49:58.960Z,37.25
2023-12-21T06:55:00.609Z,20.48
2023-12-21T07:00:02.170Z,8.95
2023-12-21T07:05:03.853Z,16.98
2023-12-21T07:10:05.936Z,8.40
2023-12-21T07:15:07.674Z,6.75
2023-12-21T07:20:09.803Z,10.25
2023-12-21T07:25:11.322Z,15.95
2023-12-21T07:30:13.169Z,8.25
2023-12-21T07:35:14.702Z,72.97
2023-12-21T07:40:16.204Z,16.02
2023-12-21T07:45:17.714Z,8.80
2023-12-21T07:50:19.177Z,11.43
2023-12-21T07:55:21.920Z,14.77
2023-12-21T08:00:23.471Z,29.75
2023-12-21T08:05:25.249Z,16.85
2023-12-21T08:10:26.958Z,9.18
2023-12-21T08:15:28.496Z,25.15
2023-12-21T08:20:31.155Z,26.67
2023-12-21T08:25:35.674Z,18.45
2023-12-21T08:30:37.277Z,15.93
2023-12-21T08:35:38.805Z,19.67
2023-12-21T08:40:40.306Z,16.33
2023-12-21T08:45:41.770Z,19.83
2023-12-21T08:50:43.309Z,21.13
2023-12-21T08:55:45.530Z,16.08
2023-12-21T09:00:47.298Z,25.10
2023-12-21T09:05:49.094Z,60.90
2023-12-21T09:10:50.893Z,28.60
2023-12-21T09:15:52.380Z,47.40
2023-12-21T09:20:53.840Z,58.42
2023-12-21T09:25:55.533Z,9.63
2023-12-21T09:30:58.091Z,5.78
2023-12-21T09:35:59.790Z,20.67
2023-12-21T09:41:01.484Z,25.20
2023-12-21T09:46:04.314Z,24.55
2023-12-21T09:51:06.745Z,16.35
2023-12-21T10:01:10.412Z,16.00
2023-12-21T10:06:12.902Z,89.43
2023-12-21T10:16:17.733Z,25.30
2023-12-21T10:21:21.164Z,12.65
2023-12-21T10:26:22.689Z,24.73
2023-12-21T10:31:24.276Z,28.75
2023-12-21T10:36:27.480Z,128.65
2023-12-21T10:41:30.441Z,13.68
2023-12-21T10:46:32.518Z,8.07
2023-12-21T10:51:38.340Z,22.80
2023-12-21T10:56:43.590Z,88.18
2023-12-21T11:01:45.321Z,7.45
2023-12-21T11:06:48.004Z,52.83
2023-12-21T11:11:49.805Z,7.32
2023-12-21T11:16:56.666Z,7.90
2023-12-21T11:21:58.758Z,20.60
2023-12-21T11:27:02.852Z,11.05
2023-12-21T11:32:07.109Z,29.98
2023-12-21T11:37:22.248Z,88.88
2023-12-21T11:42:37.269Z,217.77
2023-12-21T11:47:39.067Z,35.38
2023-12-21T11:52:40.593Z,71.97
2023-12-21T11:57:42.192Z,116.60
2023-12-21T12:02:51.434Z,94.40
2023-12-21T12:07:53.720Z,88.60
2023-12-21T12:12:55.818Z,109.53
2023-12-21T12:17:57.978Z,121.47
2023-12-21T12:22:59.797Z,29.05
2023-12-21T12:28:01.690Z,88.25
2023-12-21T12:33:05.103Z,76.07
2023-12-21T12:38:07.271Z,179.68
2023-12-21T12:43:09.956Z,93.03
2023-12-21T12:48:11.790Z,192.55
2023-12-21T12:53:15.907Z,73.50
2023-12-21T12:58:17.692Z,50.70
2023-12-21T13:03:19.629Z,145.40
2023-12-21T13:08:21.104Z,77.30
2023-12-21T13:13:23.930Z,113.03
2023-12-21T13:18:25.451Z,117.30
2023-12-21T13:23:27.034Z,199.98
2023-12-21T13:28:28.546Z,106.35
2023-12-21T13:33:30.241Z,143.07
2023-12-21T13:38:31.751Z,91.05
2023-12-21T13:43:33.467Z,119.97
2023-12-21T13:48:35.134Z,189.77
2023-12-21T13:53:37.053Z,46.35
2023-12-21T13:58:38.608Z,116.00
2023-12-21T14:03:40.210Z,63.80
2023-12-21T14:08:41.727Z,172.10
2023-12-21T14:13:43.238Z,165.20
2023-12-21T14:18:44.703Z,98.18
2023-12-21T14:23:46.145Z,121.80
2023-12-21T14:28:54.414Z,53.90
2023-12-21T14:33:59.024Z,75.55
2023-12-21T14:39:00.561Z,167.73
2023-12-21T14:44:02.195Z,226.13
2023-12-21T14:49:03.738Z,119.90
2023-12-21T14:54:05.268Z,153.10
2023-12-21T14:59:06.895Z,105.32
2023-12-21T15:04:08.554Z,148.75
2023-12-21T15:09:10.362Z,275.65
2023-12-21T15:14:12.311Z,191.98
2023-12-21T15:19:13.960Z,134.38
2023-12-21T15:24:15.492Z,148.32
2023-12-21T15:29:16.994Z,159.45
2023-12-21T15:34:18.805Z,161.35
2023-12-21T15:39:20.677Z,73.57
2023-12-21T15:44:22.197Z,85.80
2023-12-21T15:49:23.757Z,166.05
2023-12-21T15:54:25.250Z,195.10
2023-12-21T15:59:26.751Z,153.65
2023-12-21T16:04:28.342Z,162.65
2023-12-21T16:09:29.920Z,118.28
2023-12-21T16:14:31.462Z,151.88
2023-12-21T16:19:34.674Z,171.43
2023-12-21T16:24:36.138Z,238.60
2023-12-21T16:34:45.903Z,138.25
2023-12-21T16:39:47.473Z,89.30
2023-12-21T16:44:51.245Z,76.85
2023-12-21T16:49:52.705Z,179.63
2023-12-21T16:54:54.204Z,179.48
2023-12-21T16:59:56.189Z,161.10
2023-12-21T17:04:58.722Z,73.50
2023-12-21T17:10:00.361Z,73.90
2023-12-21T17:15:01.828Z,93.47
2023-12-21T17:20:04.025Z,168.38
2023-12-21T17:25:05.904Z,99.55
2023-12-21T17:30:07.923Z,74.22
2023-12-21T17:35:09.528Z,163.85
2023-12-21T17:40:15.090Z,42.50
